X  Schlie├čen METAR Luftfahrt Wetterdaten     EHKD De Kooy Airport
Temperatur
10°C Temperatur
7°C Taupunkt
82% Feuchtigkeit



Wind
34 KM/S
21 MPS
9 M/S
18 KTS



260°
W
Aktuelle Wetterlage

Meistens vereinzelte Wolken Meistens vereinzelte Wolken
Luftdruck 988.83 (hPa) - 29.2 (inHg)
Sichtweite 6 (Meile) - 9.7 (Km)
Flughafen
Flughafen Code EHKD

Position : De Kooy Airport
Entfernung: 34 (Km)

Metar:
EHKD 092025Z AUTO 26018KT 220V280 9999 SCT025 OVC028 10/07 Q0989 BLU

Zeit: 09-12-2023 21:25 CET